createdAt,value
2022-09-14T00:01:14.274Z,14.93
2022-09-14T00:03:39.637Z,8.80
2022-09-14T00:06:08.508Z,7.67
2022-09-14T00:08:35.968Z,7.43
2022-09-14T00:11:08.679Z,7.60
2022-09-14T00:13:36.372Z,9.50
2022-09-14T00:16:08.843Z,8.93
2022-09-14T00:18:36.210Z,4.37
2022-09-14T00:21:05.188Z,7.77
2022-09-14T00:23:32.071Z,10.70
2022-09-14T00:26:14.087Z,9.93
2022-09-14T00:28:43.312Z,9.73
2022-09-14T00:31:10.950Z,9.50
2022-09-14T00:33:38.533Z,5.67
2022-09-14T00:36:16.653Z,4.10
2022-09-14T00:38:43.676Z,7.57
2022-09-14T00:41:21.157Z,8.00
2022-09-14T00:44:04.262Z,4.83
2022-09-14T00:46:42.001Z,6.80
2022-09-14T00:49:22.124Z,6.27
2022-09-14T00:51:54.674Z,8.53
2022-09-14T00:54:21.513Z,5.53
2022-09-14T00:56:48.989Z,5.37
2022-09-14T00:59:23.019Z,5.57
2022-09-14T01:01:50.840Z,2.93
2022-09-14T01:04:17.934Z,6.67
2022-09-14T01:07:08.083Z,5.03
2022-09-14T01:10:10.463Z,10.73
2022-09-14T01:13:06.101Z,6.93
2022-09-14T01:15:41.255Z,4.73
2022-09-14T01:18:29.682Z,6.67
2022-09-14T01:21:34.842Z,3.23
2022-09-14T01:24:14.792Z,5.23
2022-09-14T01:27:04.453Z,6.83
2022-09-14T01:29:39.093Z,5.53
2022-09-14T01:32:14.664Z,8.07
2022-09-14T01:35:15.839Z,3.83
2022-09-14T01:37:51.256Z,4.53
2022-09-14T01:40:19.593Z,9.03
2022-09-14T01:42:50.416Z,3.67
2022-09-14T01:45:19.215Z,4.07
2022-09-14T01:47:54.712Z,2.87
2022-09-14T01:50:28.960Z,6.67
2022-09-14T01:52:59.753Z,5.70
2022-09-14T01:55:35.768Z,4.00
2022-09-14T01:58:18.080Z,7.43
2022-09-14T02:00:46.645Z,4.20
2022-09-14T02:03:17.896Z,4.00
2022-09-14T02:05:56.921Z,4.57
2022-09-14T02:08:27.113Z,5.10
2022-09-14T02:10:54.068Z,3.23
2022-09-14T02:13:21.207Z,5.00
2022-09-14T02:15:48.067Z,3.77
2022-09-14T02:18:14.937Z,4.90
2022-09-14T02:21:03.452Z,9.87
2022-09-14T02:23:30.595Z,5.00
2022-09-14T02:25:58.452Z,6.17
2022-09-14T02:28:25.341Z,5.23
2022-09-14T02:31:11.880Z,3.07
2022-09-14T02:34:11.607Z,8.40
2022-09-14T02:36:38.383Z,3.90
2022-09-14T02:39:36.860Z,3.07
2022-09-14T02:42:20.157Z,7.73
2022-09-14T02:45:31.903Z,4.50
2022-09-14T02:48:10.958Z,3.83
2022-09-14T02:50:56.705Z,9.03
2022-09-14T02:53:48.129Z,5.93
2022-09-14T02:56:15.575Z,9.03
2022-09-14T02:58:44.285Z,8.53
2022-09-14T03:01:17.058Z,5.57
2022-09-14T03:03:43.982Z,7.17
2022-09-14T03:06:11.109Z,5.20
2022-09-14T03:08:37.955Z,6.67
2022-09-14T03:11:05.843Z,6.43
2022-09-14T03:13:34.707Z,5.13
2022-09-14T03:16:06.634Z,7.57
2022-09-14T03:18:34.627Z,8.37
2022-09-14T03:21:09.415Z,3.30
2022-09-14T03:23:41.773Z,5.53
2022-09-14T03:26:10.329Z,7.27
2022-09-14T03:28:37.711Z,6.47
2022-09-14T03:31:07.020Z,8.87
2022-09-14T03:33:34.180Z,6.63
2022-09-14T03:36:01.566Z,8.07
2022-09-14T03:38:30.306Z,5.87
2022-09-14T03:41:00.066Z,5.07
2022-09-14T03:43:27.188Z,5.10
2022-09-14T03:45:54.099Z,4.77
2022-09-14T03:48:20.910Z,3.70
2022-09-14T03:50:47.851Z,3.93
2022-09-14T03:53:14.653Z,4.90
2022-09-14T03:55:41.905Z,2.90
2022-09-14T03:58:08.869Z,3.27
2022-09-14T04:00:36.402Z,3.30
2022-09-14T04:03:03.849Z,3.20
2022-09-14T04:05:30.831Z,1.73
2022-09-14T04:07:57.717Z,2.20
2022-09-14T04:10:24.557Z,1.83
2022-09-14T04:12:51.418Z,1.70
2022-09-14T04:15:18.544Z,1.50
2022-09-14T04:17:45.374Z,1.40
2022-09-14T04:20:12.204Z,1.40
2022-09-14T04:22:39.032Z,2.30
2022-09-14T04:25:06.274Z,1.20
2022-09-14T04:27:33.188Z,1.17
2022-09-14T04:29:59.986Z,1.10
2022-09-14T04:32:30.784Z,0.90
2022-09-14T04:35:01.077Z,2.67
2022-09-14T04:37:31.360Z,1.20
2022-09-14T04:39:58.211Z,1.67
2022-09-14T04:42:25.234Z,0.80
2022-09-14T04:44:52.067Z,1.10
2022-09-14T04:47:18.862Z,0.80
2022-09-14T04:49:45.809Z,1.37
2022-09-14T04:52:12.610Z,1.00
2022-09-14T04:54:39.412Z,1.00
2022-09-14T04:57:06.296Z,0.90
2022-09-14T04:59:33.215Z,1.10
2022-09-14T05:02:00.166Z,0.80
2022-09-14T05:04:27.040Z,0.67
2022-09-14T05:06:53.994Z,1.00
2022-09-14T05:09:21.015Z,1.03
2022-09-14T05:11:49.717Z,1.70
2022-09-14T05:14:16.589Z,1.00
2022-09-14T05:16:44.218Z,1.33
2022-09-14T05:19:17.071Z,2.53
2022-09-14T05:21:44.199Z,1.10
2022-09-14T05:24:16.138Z,1.40
2022-09-14T05:26:44.138Z,1.30
2022-09-14T05:29:14.291Z,1.17
2022-09-14T05:31:41.181Z,1.30
2022-09-14T05:34:09.715Z,1.80
2022-09-14T05:36:37.793Z,1.40
2022-09-14T05:39:05.443Z,1.23
2022-09-14T05:41:32.310Z,1.10
2022-09-14T05:44:00.175Z,1.10
2022-09-14T05:46:27.194Z,1.27
2022-09-14T05:48:54.153Z,1.10
2022-09-14T05:51:23.891Z,0.93
2022-09-14T05:53:53.037Z,0.97
2022-09-14T06:01:43.415Z,1.90
2022-09-14T06:04:10.641Z,1.23
2022-09-14T06:06:37.486Z,0.90
2022-09-14T06:09:04.896Z,1.50
2022-09-14T06:11:36.355Z,2.00
2022-09-14T06:14:04.491Z,4.10
2022-09-14T06:16:31.380Z,2.93
2022-09-14T06:18:59.336Z,2.30
2022-09-14T06:21:31.992Z,2.80
2022-09-14T06:23:59.986Z,1.37
2022-09-14T06:26:27.314Z,0.70
2022-09-14T06:28:54.751Z,0.83
2022-09-14T06:31:23.039Z,1.00
2022-09-14T06:33:51.897Z,1.03
2022-09-14T06:36:22.783Z,0.50
2022-09-14T06:38:50.523Z,0.60
2022-09-14T06:41:20.639Z,0.60
2022-09-14T06:43:48.160Z,0.60
2022-09-14T06:46:23.951Z,0.50
2022-09-14T06:48:56.433Z,0.47
2022-09-14T06:51:27.227Z,0.73
2022-09-14T06:53:56.350Z,0.50
2022-09-14T06:56:23.202Z,0.70
2022-09-14T06:58:52.459Z,0.50
2022-09-14T07:01:21.384Z,0.70
2022-09-14T07:03:49.089Z,1.37
2022-09-14T07:06:19.327Z,0.53
2022-09-14T07:08:46.261Z,0.33
2022-09-14T07:11:14.841Z,1.57
2022-09-14T07:13:41.844Z,0.30
2022-09-14T07:16:09.194Z,2.80
2022-09-14T07:18:36.435Z,0.60
2022-09-14T07:21:08.683Z,0.50
2022-09-14T07:23:37.729Z,0.77
2022-09-14T07:26:09.549Z,0.97
2022-09-14T07:28:37.146Z,0.90
2022-09-14T07:31:06.032Z,1.13
2022-09-14T07:33:32.932Z,0.83
2022-09-14T07:36:07.859Z,1.33
2022-09-14T07:38:51.759Z,0.90
2022-09-14T07:41:23.340Z,1.30
2022-09-14T07:43:57.749Z,0.90
2022-09-14T07:46:24.693Z,1.33
2022-09-14T07:48:59.645Z,1.43
2022-09-14T07:51:27.732Z,1.30
2022-09-14T07:53:55.124Z,1.47
2022-09-14T07:56:22.336Z,1.27
2022-09-14T07:58:55.396Z,1.30
2022-09-14T08:01:24.010Z,2.30
2022-09-14T08:03:51.172Z,1.67
2022-09-14T08:06:22.960Z,1.37
2022-09-14T08:08:51.793Z,2.73
2022-09-14T08:11:23.894Z,1.17
2022-09-14T08:13:59.308Z,1.13
2022-09-14T08:16:28.178Z,1.73
2022-09-14T08:18:57.501Z,1.60
2022-09-14T08:21:25.469Z,1.10
2022-09-14T08:23:52.782Z,2.30
2022-09-14T08:26:22.085Z,1.60
2022-09-14T08:28:50.710Z,1.40
2022-09-14T08:31:21.540Z,2.43
2022-09-14T08:33:50.940Z,2.80
2022-09-14T08:36:19.683Z,3.53
2022-09-14T08:38:46.702Z,3.60
2022-09-14T08:41:29.904Z,3.97
2022-09-14T08:44:27.784Z,3.30
2022-09-14T08:47:07.307Z,3.57
2022-09-14T08:49:34.089Z,2.50
2022-09-14T08:52:01.127Z,2.43
2022-09-14T08:54:27.943Z,2.27
2022-09-14T08:57:02.284Z,2.43
2022-09-14T08:59:42.024Z,4.20
2022-09-14T09:02:23.949Z,2.07
2022-09-14T09:05:28.236Z,2.97
2022-09-14T09:08:19.231Z,2.83
2022-09-14T09:10:46.747Z,2.80
2022-09-14T09:13:20.160Z,2.90
2022-09-14T09:15:52.273Z,3.80
2022-09-14T09:18:37.432Z,3.83
2022-09-14T09:21:28.280Z,5.20
2022-09-14T09:24:10.948Z,4.10
2022-09-14T09:26:39.536Z,5.47
2022-09-14T09:29:09.577Z,3.23
2022-09-14T09:31:39.979Z,5.10
2022-09-14T09:34:06.986Z,3.23
2022-09-14T09:36:36.877Z,7.27
2022-09-14T09:39:05.442Z,32.03
2022-09-14T09:41:52.157Z,24.17
2022-09-14T09:44:18.985Z,6.43
2022-09-14T09:46:47.523Z,7.23
2022-09-14T09:49:23.660Z,4.07
2022-09-14T09:51:51.477Z,5.83
2022-09-14T09:54:28.581Z,3.30
2022-09-14T09:57:01.135Z,3.10
2022-09-14T09:59:42.597Z,3.20
2022-09-14T10:02:28.833Z,5.47
2022-09-14T10:05:20.247Z,6.43
2022-09-14T10:07:49.895Z,3.00
2022-09-14T10:10:19.893Z,4.17
2022-09-14T10:12:53.907Z,4.17
2022-09-14T10:15:39.017Z,4.33
2022-09-14T10:18:15.161Z,4.80
2022-09-14T10:20:54.427Z,4.53
2022-09-14T10:23:21.289Z,3.93
2022-09-14T10:25:50.443Z,3.53
2022-09-14T10:28:29.352Z,3.33
2022-09-14T10:31:15.105Z,2.50
2022-09-14T10:33:42.622Z,2.70
2022-09-14T10:36:27.955Z,2.70
2022-09-14T10:39:17.666Z,8.77
2022-09-14T10:42:29.084Z,7.40
2022-09-14T10:45:15.288Z,5.23
2022-09-14T10:48:03.693Z,2.73
2022-09-14T10:50:36.659Z,5.90
2022-09-14T10:53:31.557Z,2.37
2022-09-14T10:56:07.559Z,4.10
2022-09-14T10:58:40.654Z,4.23
2022-09-14T11:01:13.448Z,5.50
2022-09-14T11:04:37.401Z,3.50
2022-09-14T11:07:16.857Z,3.70
2022-09-14T11:10:24.127Z,4.90
2022-09-14T11:13:05.095Z,3.87
2022-09-14T11:15:36.120Z,2.57
2022-09-14T11:18:23.263Z,3.33
2022-09-14T11:21:02.400Z,2.43
2022-09-14T11:23:46.692Z,2.00
2022-09-14T11:26:42.345Z,2.10
2022-09-14T11:29:21.661Z,2.17
2022-09-14T11:32:17.008Z,2.63
2022-09-14T11:34:54.851Z,2.10
2022-09-14T11:37:27.409Z,2.37
2022-09-14T11:40:10.504Z,5.27
2022-09-14T11:43:06.099Z,19.73
2022-09-14T11:45:45.887Z,8.73
2022-09-14T11:48:51.726Z,8.87
2022-09-14T11:51:16.113Z,5.40
2022-09-14T11:53:44.198Z,3.77
2022-09-14T11:56:26.810Z,3.60
2022-09-14T11:59:06.844Z,4.53
2022-09-14T12:01:40.823Z,4.00
2022-09-14T12:04:12.354Z,3.73
2022-09-14T12:06:49.277Z,3.87
2022-09-14T12:09:21.482Z,3.30
2022-09-14T12:11:56.085Z,4.17
2022-09-14T12:14:32.546Z,4.10
2022-09-14T12:17:39.560Z,3.73
2022-09-14T12:20:41.541Z,3.90
2022-09-14T12:23:11.438Z,3.80
2022-09-14T12:25:39.679Z,3.77
2022-09-14T12:28:29.682Z,3.77
2022-09-14T12:30:57.227Z,3.20
2022-09-14T12:33:33.145Z,6.37
2022-09-14T12:36:03.984Z,4.20
2022-09-14T12:38:31.045Z,4.10
2022-09-14T12:41:16.332Z,4.20
2022-09-14T12:44:03.429Z,4.23
2022-09-14T12:46:38.666Z,5.33
2022-09-14T12:49:24.560Z,4.77
2022-09-14T12:51:51.900Z,5.60
2022-09-14T12:54:36.226Z,7.20
2022-09-14T12:57:31.127Z,5.40
2022-09-14T13:00:10.050Z,5.50
2022-09-14T13:03:01.143Z,4.97
2022-09-14T13:05:30.110Z,5.53
2022-09-14T13:07:57.173Z,6.93
2022-09-14T13:10:35.298Z,5.43
2022-09-14T13:13:07.047Z,7.63
2022-09-14T13:15:37.034Z,6.00
2022-09-14T13:18:07.893Z,5.93
2022-09-14T13:20:35.890Z,5.63
2022-09-14T13:23:03.076Z,8.43
2022-09-14T13:25:35.170Z,5.70
2022-09-14T13:28:05.157Z,5.70
2022-09-14T13:30:33.545Z,7.70
2022-09-14T13:33:01.326Z,5.60
2022-09-14T13:35:35.920Z,5.97
2022-09-14T13:38:10.751Z,5.60
2022-09-14T13:40:37.890Z,6.47
2022-09-14T13:43:04.956Z,6.10
2022-09-14T13:45:32.673Z,5.97
2022-09-14T13:47:59.714Z,5.97
2022-09-14T13:50:27.286Z,8.97
2022-09-14T13:53:02.494Z,7.63
2022-09-14T13:55:33.497Z,6.50
2022-09-14T13:58:15.083Z,5.87
2022-09-14T14:01:06.067Z,5.60
2022-09-14T14:03:55.735Z,6.07
2022-09-14T14:06:26.854Z,4.73
2022-09-14T14:09:05.432Z,5.57
2022-09-14T14:11:35.493Z,5.03
2022-09-14T14:14:30.258Z,5.20
2022-09-14T14:17:13.246Z,4.30
2022-09-14T14:19:44.041Z,4.50
2022-09-14T14:22:14.047Z,5.17
2022-09-14T14:25:09.071Z,5.20
2022-09-14T14:27:38.478Z,9.33
2022-09-14T14:30:14.937Z,5.77
2022-09-14T14:32:42.162Z,5.30
2022-09-14T14:35:16.845Z,5.43
2022-09-14T14:37:43.795Z,6.23
2022-09-14T14:40:13.732Z,5.97
2022-09-14T14:42:40.993Z,6.80
2022-09-14T14:45:14.267Z,6.57
2022-09-14T14:47:41.364Z,7.80
2022-09-14T14:50:22.631Z,9.07
2022-09-14T14:52:50.577Z,8.10
2022-09-14T14:55:17.967Z,7.87
2022-09-14T14:57:44.829Z,7.00
2022-09-14T15:00:17.974Z,8.17
2022-09-14T15:02:44.912Z,9.67
2022-09-14T15:05:12.294Z,7.67
2022-09-14T15:07:39.403Z,8.03
2022-09-14T15:10:06.981Z,7.77
2022-09-14T15:12:34.450Z,7.93
2022-09-14T15:15:01.731Z,10.17
2022-09-14T16:16:35.418Z,23.67
2022-09-14T16:19:11.113Z,32.83
2022-09-14T16:21:38.438Z,13.70
2022-09-14T16:24:08.038Z,10.73
2022-09-14T16:26:37.426Z,7.80
2022-09-14T16:29:05.407Z,10.00
2022-09-14T16:31:34.325Z,7.60
2022-09-14T16:34:03.741Z,6.63
2022-09-14T16:36:33.602Z,7.93
2022-09-14T16:39:02.622Z,5.37
2022-09-14T16:41:30.388Z,5.03
2022-09-14T16:43:58.504Z,5.37
2022-09-14T16:46:26.958Z,5.63
2022-09-14T16:48:54.234Z,6.07
2022-09-14T16:51:23.514Z,6.20
2022-09-14T16:53:51.461Z,6.10
2022-09-14T16:56:21.546Z,11.30
2022-09-14T16:58:49.673Z,11.77
2022-09-14T17:01:17.629Z,11.03
2022-09-14T17:03:45.741Z,9.30
2022-09-14T17:06:15.789Z,5.80
2022-09-14T17:08:44.194Z,6.20
2022-09-14T17:11:12.216Z,4.90
2022-09-14T17:13:39.078Z,8.87
2022-09-14T17:16:08.718Z,7.07
